(°C)
-7°
-6°
-6°
-5°
-5°
-4°
-4°
(°C)
-12°
-12°
-11°
-11°
-10°
-9°
-9°
ESE
ESE
ESE
ESE
SE
SSE
S
(km/h)
14-24
15-24
15-24
14-22
13-20
12-19
11-17
(mm)
3
0
0
1.4
0
0
0
(%)
26
42
49
64
48
48
49

Wysokość słońca

/ -44.2°
sun-icon
UV 0
08:39
16:45
Ubywający Księżyc garbaty (232°)
21:56
10:46

METAR dla 55.6°N 37.27°E (UUWW)

Czas Warunki Temperatura/
Punkt rosy
Wiatr Widzialność Pogoda Chmury Ciśn. atm. Zmień Surowy
IFR -7°C / -9°C 120º 6kt. Wind Shear present on Runway 06. 3800m Light Showers Snow 3.00mm precipitation Vertical Visibility of 0ft. 997 No Significant change. Runway 06: Dry snow, 51-100% contamination with 5mm, friction coefficient 0.35. UUWW 220000Z 12003MPS 3800 -SHSN BKN023CB M07/M09 Q0997 WS R06 R06/490535 NOSIG
IFR -7°C / -8°C 120º 6kt. Wind Shear present on Runway 06. 3400m Light Showers Snow 3.00mm precipitation Vertical Visibility of 0ft. 997 No Significant change. Runway 06: Dry snow, 51-100% contamination with 5mm, friction coefficient 0.35. UUWW 212330Z 12003MPS 3400 -SHSN BKN021CB M07/M08 Q0997 WS R06 R06/490535 NOSIG
IFR -7°C / -9°C 120º 8kt 2000m Showers Snow 3.00mm precipitation Vertical Visibility of 0ft. 997 Temporary: Visibility 0800. Heavy Showers Snow . Broken Clouds 1500ft. Cumulonimbus . Runway 06: Dry snow, 26-50% contamination with 5mm, friction coefficient 0.42. UUWW 212300Z 12004MPS 2000 SHSN BKN018CB M07/M09 Q0997 R06/450542 TEMPO 0800 +SHSN BKN015CB
MVFR -8°C / °C 120º 6kt 7000m - Broken Clouds 2800ft 997 Temporary: Visibility 1200. Showers Snow . Broken Clouds 1500ft. Cumulonimbus . Runway 06: Dry snow, 26-50% contamination with 5mm, friction coefficient 0.42. UUWW 212230Z 12003MPS 7000 BKN028 M08/M10 Q0997 R06/450542 TEMPO 1200 SHSN BKN015CB
MVFR -8°C / -9°C 120º 10kt 7000m - Scattered Clouds 2000ft 997 Temporary: Visibility 1200. Showers Snow . Broken Clouds 1500ft. Cumulonimbus . Runway 19: Dry snow, 26-50% contamination with 5mm, friction coefficient 0.40. UUWW 212200Z 12005MPS 7000 SCT020 M08/M09 Q0997 R19/450540 TEMPO 1200 SHSN BKN015CB
MVFR -7°C / -8°C 120º 10kt 7000m - Broken Clouds 3600ft 997 No Significant change. Runway 19: Dry snow, 26-50% contamination with 5mm, friction coefficient 0.40. UUWW 212130Z 12005MPS 7000 BKN036 M07/M08 Q0997 R19/450540 NOSIG
MVFR -7°C / -8°C 120º 8kt 6000m - Broken Clouds 3300ft 996 No Significant change. Runway 19: Dry snow, 26-50% contamination with 5mm, friction coefficient 0.40. UUWW 212100Z 12004MPS 6000 BKN033 M07/M08 Q0996 R19/450540 NOSIG
MVFR -7°C / -8°C 130º 8kt 6000m - Overcast 2800ft 996 No Significant change. Runway 19: Dry snow, 26-50% contamination with 5mm, friction coefficient 0.40. UUWW 212030Z 13004MPS 6000 OVC028 M07/M08 Q0996 R19/450540 NOSIG
MVFR -6°C / -8°C 130º 6kt 5000m Light Snow Mist 1.00mm precipitation Vertical Visibility of 0ft. 996 No Significant change. Runway 19: Dry snow, 26-50% contamination with 5mm, friction coefficient 0.40. UUWW 212000Z 13003MPS 5000 -SN BR OVC030 M06/M08 Q0996 R19/450540 NOSIG
MVFR -7°C / -8°C 130º 4kt 6000m Light Snow 1.00mm precipitation Vertical Visibility of 0ft.
Overcast 3600ft
996 No Significant change. Runway 06: Dry snow, 51-100% contamination with 10mm, friction coefficient 0.35. UUWW 211930Z 13002MPS 6000 -SN BKN012 OVC036 M07/M08 Q0996 R06/491035 NOSIG
IFR -7°C / -8°C 130º 6kt 2500m Light Snow 1.00mm precipitation Vertical Visibility of 0ft. 995 No Significant change. Runway 06: Dry snow, 51-100% contamination with 10mm, friction coefficient 0.35. UUWW 211900Z 13003MPS 2500 -SN BKN028 M07/M08 Q0995 R06/491035 NOSIG
IFR -7°C / -8°C 130º 6kt 2200m Light Showers Snow 3.00mm precipitation Vertical Visibility of 0ft. 995 No Significant change. Runway 06: Dry snow, 51-100% contamination with 10mm, friction coefficient 0.35. UUWW 211830Z 13003MPS 2200 -SHSN BKN032CB M07/M08 Q0995 RESN R06/491035 NOSIG
IFR -7°C / -8°C 130º 8kt 2000m Showers Snow 3.00mm precipitation Vertical Visibility of 0ft. 995 No Significant change. Runway 19: Dry snow, 51-100% contamination with 10mm, friction coefficient 0.37. UUWW 211800Z 13004MPS 2000 SHSN BKN024CB M07/M08 Q0995 R19/491037 NOSIG
IFR -7°C / -8°C 130º 6kt 2600m Light Snow 1.00mm precipitation Vertical Visibility of 0ft. 995 No Significant change. Runway 19: Dry snow, 51-100% contamination with 10mm, friction coefficient 0.37. UUWW 211730Z 13003MPS 2600 -SN BKN030 M07/M08 Q0995 R19/491037 NOSIG
IFR -7°C / -8°C 130º 6kt 2800m Light Snow 1.00mm precipitation Vertical Visibility of 0ft. 995 No Significant change. Runway 19: Dry snow, 51-100% contamination with 10mm, friction coefficient 0.37. UUWW 211700Z 13003MPS 2800 -SN BKN039 M07/M08 Q0995 RESN R19/491037 NOSIG
IFR -7°C / -8°C 120º 8kt 1900m Snow 3.00mm precipitation Vertical Visibility of 0ft. 995 No Significant change. Runway 19: Dry snow, 51-100% contamination with 10mm, friction coefficient 0.37. UUWW 211630Z 12004MPS 1900 SN OVC030 M07/M08 Q0995 R19/491037 NOSIG
LIFR -7°C / -8°C 130º 6kt 1500m. Runway 06: Visual range is 2000m and decreasing. Snow 3.00mm precipitation Vertical Visibility of 0ft. 995 No Significant change. Runway 06: Dry snow, 51-100% contamination with 10mm, friction coefficient 0.35. UUWW 211600Z 13003MPS 1500 R06/P2000D SN OVC017 M07/M08 Q0995 R06/491035 NOSIG
LIFR -7°C / -8°C 120º 8kt 1600m. Runway 19: Visual range is 2000m and increasing. Snow 3.00mm precipitation Vertical Visibility of 0ft. 995 No Significant change. Runway 19: Dry snow, 51-100% contamination with 10mm, friction coefficient 0.37. UUWW 211530Z 12004MPS 1600 1300N R19/P2000U SN OVC014 M07/M08 Q0995 R19/491037 NOSIG
LIFR -7°C / -8°C 120º 8kt 1400m. Runway 19: Visual range is 2000m. Snow 3.00mm precipitation Vertical Visibility of 0ft. 995 No Significant change. Runway 19: Dry snow, 51-100% contamination with 10mm, friction coefficient 0.37. UUWW 211500Z 12004MPS 1400 R19/P2000N SN OVC023 M07/M08 Q0995 R19/491037 NOSIG
LIFR -6°C / -8°C 120º 8kt 1600m. Runway 06: Visual range is 2000m and increasing. Snow 3.00mm precipitation Vertical Visibility of 0ft. 995 No Significant change. Runway 06: Dry snow, 51-100% contamination with 10mm, friction coefficient 0.35. UUWW 211430Z 12004MPS 1600 R06/P2000U SN OVC023 M06/M08 Q0995 R06/491035 NOSIG
LIFR -6°C / -8°C 120º 10kt 1600m. Runway 06: Visual range is 1600m. Snow 3.00mm precipitation Vertical Visibility of 0ft. 995 No Significant change. Runway 06: Dry snow, 51-100% contamination with 10mm, friction coefficient 0.35. UUWW 211400Z 12005MPS 1600 R06/1600N SN OVC023 M06/M08 Q0995 R06/491035 NOSIG
IFR -6°C / -8°C 110º 8kt. Wind Shear present on Runway 19. 2200m Light Snow 1.00mm precipitation Vertical Visibility of 0ft.
Overcast 2600ft
995 No Significant change. Runway 19: Dry snow, 26-50% contamination with 10mm, friction coefficient 0.37. UUWW 211330Z 11004MPS 2200 -SN FEW008 OVC026 M06/M08 Q0995 RESN WS R19 R19/451037 NOSIG
IFR -6°C / -8°C 120º 10kt 2500m Light Snow 1.00mm precipitation Vertical Visibility of 0ft.
Overcast 2600ft
995 No Significant change. Runway 19: Dry snow, 26-50% contamination with 10mm, friction coefficient 0.37. UUWW 211300Z 12005MPS 2500 -SN FEW008 OVC026 M06/M08 Q0995 R19/451037 NOSIG
IFR -6°C / -8°C 110º 10kt 2500m Light Snow 1.00mm precipitation Vertical Visibility of 0ft.
Overcast 2700ft
995 No Significant change. Runway 19: Dry snow, 26-50% contamination with 10mm, friction coefficient 0.37. UUWW 211230Z 11005MPS 2500 -SN FEW008 OVC027 M06/M08 Q0995 R19/451037 NOSIG

IFR

-7°C / -9°C

[Więcej]
Wiatr 120º 6kt. Wind Shear present on Runway 06.
Widzialność 3800m
Pogoda Light Showers Snow 3.00mm precipitation
Chmury Vertical Visibility of 0ft.
Ciśn. atm. 997
Zmień No Significant change. Runway 06: Dry snow, 51-100% contamination with 5mm, friction coefficient 0.35.
Surowy UUWW 220000Z 12003MPS 3800 -SHSN BKN023CB M07/M09 Q0997 WS R06 R06/490535 NOSIG

IFR

-7°C / -8°C

[Więcej]
Wiatr 120º 6kt. Wind Shear present on Runway 06.
Widzialność 3400m
Pogoda Light Showers Snow 3.00mm precipitation
Chmury Vertical Visibility of 0ft.
Ciśn. atm. 997
Zmień No Significant change. Runway 06: Dry snow, 51-100% contamination with 5mm, friction coefficient 0.35.
Surowy UUWW 212330Z 12003MPS 3400 -SHSN BKN021CB M07/M08 Q0997 WS R06 R06/490535 NOSIG

IFR

-7°C / -9°C

[Więcej]
Wiatr 120º 8kt
Widzialność 2000m
Pogoda Showers Snow 3.00mm precipitation
Chmury Vertical Visibility of 0ft.
Ciśn. atm. 997
Zmień Temporary: Visibility 0800. Heavy Showers Snow . Broken Clouds 1500ft. Cumulonimbus . Runway 06: Dry snow, 26-50% contamination with 5mm, friction coefficient 0.42.
Surowy UUWW 212300Z 12004MPS 2000 SHSN BKN018CB M07/M09 Q0997 R06/450542 TEMPO 0800 +SHSN BKN015CB

MVFR

-8°C / °C

[Więcej]
Wiatr 120º 6kt
Widzialność 7000m
Pogoda -
Chmury Broken Clouds 2800ft
Ciśn. atm. 997
Zmień Temporary: Visibility 1200. Showers Snow . Broken Clouds 1500ft. Cumulonimbus . Runway 06: Dry snow, 26-50% contamination with 5mm, friction coefficient 0.42.
Surowy UUWW 212230Z 12003MPS 7000 BKN028 M08/M10 Q0997 R06/450542 TEMPO 1200 SHSN BKN015CB

MVFR

-8°C / -9°C

[Więcej]
Wiatr 120º 10kt
Widzialność 7000m
Pogoda -
Chmury Scattered Clouds 2000ft
Ciśn. atm. 997
Zmień Temporary: Visibility 1200. Showers Snow . Broken Clouds 1500ft. Cumulonimbus . Runway 19: Dry snow, 26-50% contamination with 5mm, friction coefficient 0.40.
Surowy UUWW 212200Z 12005MPS 7000 SCT020 M08/M09 Q0997 R19/450540 TEMPO 1200 SHSN BKN015CB

MVFR

-7°C / -8°C

[Więcej]
Wiatr 120º 10kt
Widzialność 7000m
Pogoda -
Chmury Broken Clouds 3600ft
Ciśn. atm. 997
Zmień No Significant change. Runway 19: Dry snow, 26-50% contamination with 5mm, friction coefficient 0.40.
Surowy UUWW 212130Z 12005MPS 7000 BKN036 M07/M08 Q0997 R19/450540 NOSIG

MVFR

-7°C / -8°C

[Więcej]
Wiatr 120º 8kt
Widzialność 6000m
Pogoda -
Chmury Broken Clouds 3300ft
Ciśn. atm. 996
Zmień No Significant change. Runway 19: Dry snow, 26-50% contamination with 5mm, friction coefficient 0.40.
Surowy UUWW 212100Z 12004MPS 6000 BKN033 M07/M08 Q0996 R19/450540 NOSIG

MVFR

-7°C / -8°C

[Więcej]
Wiatr 130º 8kt
Widzialność 6000m
Pogoda -
Chmury Overcast 2800ft
Ciśn. atm. 996
Zmień No Significant change. Runway 19: Dry snow, 26-50% contamination with 5mm, friction coefficient 0.40.
Surowy UUWW 212030Z 13004MPS 6000 OVC028 M07/M08 Q0996 R19/450540 NOSIG

MVFR

-6°C / -8°C

[Więcej]
Wiatr 130º 6kt
Widzialność 5000m
Pogoda Light Snow Mist 1.00mm precipitation
Chmury Vertical Visibility of 0ft.
Ciśn. atm. 996
Zmień No Significant change. Runway 19: Dry snow, 26-50% contamination with 5mm, friction coefficient 0.40.
Surowy UUWW 212000Z 13003MPS 5000 -SN BR OVC030 M06/M08 Q0996 R19/450540 NOSIG

MVFR

-7°C / -8°C

[Więcej]
Wiatr 130º 4kt
Widzialność 6000m
Pogoda Light Snow 1.00mm precipitation
Chmury Vertical Visibility of 0ft.
Overcast 3600ft
Ciśn. atm. 996
Zmień No Significant change. Runway 06: Dry snow, 51-100% contamination with 10mm, friction coefficient 0.35.
Surowy UUWW 211930Z 13002MPS 6000 -SN BKN012 OVC036 M07/M08 Q0996 R06/491035 NOSIG

IFR

-7°C / -8°C

[Więcej]
Wiatr 130º 6kt
Widzialność 2500m
Pogoda Light Snow 1.00mm precipitation
Chmury Vertical Visibility of 0ft.
Ciśn. atm. 995
Zmień No Significant change. Runway 06: Dry snow, 51-100% contamination with 10mm, friction coefficient 0.35.
Surowy UUWW 211900Z 13003MPS 2500 -SN BKN028 M07/M08 Q0995 R06/491035 NOSIG

IFR

-7°C / -8°C

[Więcej]
Wiatr 130º 6kt
Widzialność 2200m
Pogoda Light Showers Snow 3.00mm precipitation
Chmury Vertical Visibility of 0ft.
Ciśn. atm. 995
Zmień No Significant change. Runway 06: Dry snow, 51-100% contamination with 10mm, friction coefficient 0.35.
Surowy UUWW 211830Z 13003MPS 2200 -SHSN BKN032CB M07/M08 Q0995 RESN R06/491035 NOSIG

IFR

-7°C / -8°C

[Więcej]
Wiatr 130º 8kt
Widzialność 2000m
Pogoda Showers Snow 3.00mm precipitation
Chmury Vertical Visibility of 0ft.
Ciśn. atm. 995
Zmień No Significant change. Runway 19: Dry snow, 51-100% contamination with 10mm, friction coefficient 0.37.
Surowy UUWW 211800Z 13004MPS 2000 SHSN BKN024CB M07/M08 Q0995 R19/491037 NOSIG

IFR

-7°C / -8°C

[Więcej]
Wiatr 130º 6kt
Widzialność 2600m
Pogoda Light Snow 1.00mm precipitation
Chmury Vertical Visibility of 0ft.
Ciśn. atm. 995
Zmień No Significant change. Runway 19: Dry snow, 51-100% contamination with 10mm, friction coefficient 0.37.
Surowy UUWW 211730Z 13003MPS 2600 -SN BKN030 M07/M08 Q0995 R19/491037 NOSIG

IFR

-7°C / -8°C

[Więcej]
Wiatr 130º 6kt
Widzialność 2800m
Pogoda Light Snow 1.00mm precipitation
Chmury Vertical Visibility of 0ft.
Ciśn. atm. 995
Zmień No Significant change. Runway 19: Dry snow, 51-100% contamination with 10mm, friction coefficient 0.37.
Surowy UUWW 211700Z 13003MPS 2800 -SN BKN039 M07/M08 Q0995 RESN R19/491037 NOSIG

IFR

-7°C / -8°C

[Więcej]
Wiatr 120º 8kt
Widzialność 1900m
Pogoda Snow 3.00mm precipitation
Chmury Vertical Visibility of 0ft.
Ciśn. atm. 995
Zmień No Significant change. Runway 19: Dry snow, 51-100% contamination with 10mm, friction coefficient 0.37.
Surowy UUWW 211630Z 12004MPS 1900 SN OVC030 M07/M08 Q0995 R19/491037 NOSIG

LIFR

-7°C / -8°C

[Więcej]
Wiatr 130º 6kt
Widzialność 1500m. Runway 06: Visual range is 2000m and decreasing.
Pogoda Snow 3.00mm precipitation
Chmury Vertical Visibility of 0ft.
Ciśn. atm. 995
Zmień No Significant change. Runway 06: Dry snow, 51-100% contamination with 10mm, friction coefficient 0.35.
Surowy UUWW 211600Z 13003MPS 1500 R06/P2000D SN OVC017 M07/M08 Q0995 R06/491035 NOSIG

LIFR

-7°C / -8°C

[Więcej]
Wiatr 120º 8kt
Widzialność 1600m. Runway 19: Visual range is 2000m and increasing.
Pogoda Snow 3.00mm precipitation
Chmury Vertical Visibility of 0ft.
Ciśn. atm. 995
Zmień No Significant change. Runway 19: Dry snow, 51-100% contamination with 10mm, friction coefficient 0.37.
Surowy UUWW 211530Z 12004MPS 1600 1300N R19/P2000U SN OVC014 M07/M08 Q0995 R19/491037 NOSIG

LIFR

-7°C / -8°C

[Więcej]
Wiatr 120º 8kt
Widzialność 1400m. Runway 19: Visual range is 2000m.
Pogoda Snow 3.00mm precipitation
Chmury Vertical Visibility of 0ft.
Ciśn. atm. 995
Zmień No Significant change. Runway 19: Dry snow, 51-100% contamination with 10mm, friction coefficient 0.37.
Surowy UUWW 211500Z 12004MPS 1400 R19/P2000N SN OVC023 M07/M08 Q0995 R19/491037 NOSIG

LIFR

-6°C / -8°C

[Więcej]
Wiatr 120º 8kt
Widzialność 1600m. Runway 06: Visual range is 2000m and increasing.
Pogoda Snow 3.00mm precipitation
Chmury Vertical Visibility of 0ft.
Ciśn. atm. 995
Zmień No Significant change. Runway 06: Dry snow, 51-100% contamination with 10mm, friction coefficient 0.35.
Surowy UUWW 211430Z 12004MPS 1600 R06/P2000U SN OVC023 M06/M08 Q0995 R06/491035 NOSIG

LIFR

-6°C / -8°C

[Więcej]
Wiatr 120º 10kt
Widzialność 1600m. Runway 06: Visual range is 1600m.
Pogoda Snow 3.00mm precipitation
Chmury Vertical Visibility of 0ft.
Ciśn. atm. 995
Zmień No Significant change. Runway 06: Dry snow, 51-100% contamination with 10mm, friction coefficient 0.35.
Surowy UUWW 211400Z 12005MPS 1600 R06/1600N SN OVC023 M06/M08 Q0995 R06/491035 NOSIG

IFR

-6°C / -8°C

[Więcej]
Wiatr 110º 8kt. Wind Shear present on Runway 19.
Widzialność 2200m
Pogoda Light Snow 1.00mm precipitation
Chmury Vertical Visibility of 0ft.
Overcast 2600ft
Ciśn. atm. 995
Zmień No Significant change. Runway 19: Dry snow, 26-50% contamination with 10mm, friction coefficient 0.37.
Surowy UUWW 211330Z 11004MPS 2200 -SN FEW008 OVC026 M06/M08 Q0995 RESN WS R19 R19/451037 NOSIG

IFR

-6°C / -8°C

[Więcej]
Wiatr 120º 10kt
Widzialność 2500m
Pogoda Light Snow 1.00mm precipitation
Chmury Vertical Visibility of 0ft.
Overcast 2600ft
Ciśn. atm. 995
Zmień No Significant change. Runway 19: Dry snow, 26-50% contamination with 10mm, friction coefficient 0.37.
Surowy UUWW 211300Z 12005MPS 2500 -SN FEW008 OVC026 M06/M08 Q0995 R19/451037 NOSIG

IFR

-6°C / -8°C

[Więcej]
Wiatr 110º 10kt
Widzialność 2500m
Pogoda Light Snow 1.00mm precipitation
Chmury Vertical Visibility of 0ft.
Overcast 2700ft
Ciśn. atm. 995
Zmień No Significant change. Runway 19: Dry snow, 26-50% contamination with 10mm, friction coefficient 0.37.
Surowy UUWW 211230Z 11005MPS 2500 -SN FEW008 OVC027 M06/M08 Q0995 R19/451037 NOSIG

TAF dla 55.6°N 37.27°E (UUWW)

From till


Maximum Temperature -5ºC on . Minimum Temperature -7ºC on .
From till Wind 110º 6kt. Gust 16kt. Visibility 3000m. Light Snow . Overcast 1100ft.
Temporarly from till Visibility 804.670m. Heavy Showers Snow . Broken Clouds 400ft. Broken Clouds 1600ft.
Becoming from till Wind 110º 6kt. Gust 16kt. Visibility 6000m. Light Snow . Overcast 1100ft.
Temporarly from till Visibility 1200m. Showers Snow . Few Clouds 500ft. Broken Clouds 1600ft.

Surowy: TAF UUWW 212256Z 2200/2224 11003G08MPS 3000 -SN OVC011 TXM05/2212Z TNM07/2200Z TEMPO 2200/2210 0800 +SHSN BKN004 BKN016CB BECMG 2210/2212 6000 -SN TEMPO 2212/2221 1200 SHSN FEW005 BKN016CB

Radar i prognoza opadów na teraz dla 55.6°N 37.27°E

Mżawka
Lekkie
Umiarkowane
Intensywne
Bardzo Intensywne
Grad

Wskaźnik lokalizacji jest umieszczony na 55.6°N 37.27°E. Animacja przedstawia radar opadów dla ostatniej godziny, jak również 1h prognozę pogody. Mżawka i lekkie opady mogą być niewidoczne na radarze. Intensywność opadów jest oznaczona kolorami od jasnoniebieskiego do ciemnofioletowego.

Aktualne zdjęcia satelitarne i zdjęcia opadów deszczu dla 55.6°N 37.27°E

Wskaźnik lokalizacji znajduje się na 55.6°N 37.27°E. [Więcej]

Obraz satelitarny w czasie rzeczywistym łączy światło widzialne w ciągu dnia z promieniowaniem podczerwonym w nocy. W nocy obraz nie jest ciemny, ponieważ promieniowanie podczerwone może wykrywać różnice temperatur. Niestety niskie chmury i mgłę trudno odróżnić od temperatury gruntu, przez co mogą być prawie niewidoczne w nocy. Zdjęcia satelitarne Meteosat dla Europy są aktualizowane w czasie rzeczywistym co 5 minut. Obrazy GOES-16/GOES-17 (Ameryka Północna i Południowa) oraz Himawari (Azja) są aktualizowane co 10 minut.

Prawa autorskie 2022 EUMETSAT / meteoblue. / Prawa autorskie 2022 meteoblue